DLH3LR EDDM-EDDL
Flight info
| Callsign | DLH3LR |
|---|---|
| Flight time | 0h 57m |
| Altitude | 32000 |
| Route | GIVMI6Q/08L GIVMI Y101 INBED DCT REKDI DCT LOHRE Z850 ARPEG/N0358F240 Z850 ADEMI T854 DOMUX DOMUX1A |
| Aircraft | A320/M-SDE2E3FGIJ1LORWXYZ/HB1 |
Departure
| Time | 2026-05-04 18:06 |
|---|---|
| Airport | Munich Airport (EDDM) |
Arrival
| Time | 2026-05-04 19:04 |
|---|---|
| Airport | Düsseldorf Airport (EDDL) |
| Time | Latitude | Longitude | Altitude | Speed | Heading |
|---|---|---|---|---|---|
| 2026-05-04 17:26 | 48.35256 | 11.79318 | 1462 ft | 0 kts | 265° |
| 2026-05-04 17:49 | 48.35257 | 11.79338 | 1458 ft | 2 kts | 265° |
| 2026-05-04 17:50 | 48.35259 | 11.79363 | 1459 ft | 2 kts | 265° |
| 2026-05-04 17:50 | 48.35260 | 11.79389 | 1460 ft | 2 kts | 265° |
| 2026-05-04 17:50 | 48.35262 | 11.79414 | 1461 ft | 2 kts | 265° |
| 2026-05-04 17:50 | 48.35263 | 11.79440 | 1461 ft | 2 kts | 265° |
| 2026-05-04 17:51 | 48.35265 | 11.79465 | 1459 ft | 2 kts | 243° |
| 2026-05-04 17:51 | 48.35275 | 11.79486 | 1460 ft | 2 kts | 200° |
| 2026-05-04 17:51 | 48.35280 | 11.79489 | 1463 ft | 0 kts | 179° |
| 2026-05-04 17:53 | 48.35269 | 11.79490 | 1462 ft | 5 kts | 173° |
| 2026-05-04 17:53 | 48.35251 | 11.79527 | 1461 ft | 3 kts | 97° |
| 2026-05-04 17:53 | 48.35258 | 11.79603 | 1459 ft | 10 kts | 64° |
| 2026-05-04 17:53 | 48.35317 | 11.79614 | 1460 ft | 8 kts | 355° |
| 2026-05-04 17:54 | 48.35381 | 11.79604 | 1462 ft | 10 kts | 354° |
| 2026-05-04 17:54 | 48.35446 | 11.79593 | 1467 ft | 9 kts | 354° |
| 2026-05-04 17:54 | 48.35531 | 11.79578 | 1461 ft | 14 kts | 354° |
| 2026-05-04 17:54 | 48.35633 | 11.79561 | 1467 ft | 15 kts | 353° |
| 2026-05-04 17:55 | 48.35747 | 11.79541 | 1460 ft | 17 kts | 353° |
| 2026-05-04 17:55 | 48.35870 | 11.79519 | 1462 ft | 15 kts | 353° |
| 2026-05-04 17:55 | 48.35940 | 11.79507 | 1467 ft | 8 kts | 354° |
| 2026-05-04 17:55 | 48.35993 | 11.79499 | 1465 ft | 7 kts | 353° |
| 2026-05-04 17:56 | 48.36033 | 11.79492 | 1464 ft | 5 kts | 353° |
| 2026-05-04 17:56 | 48.36039 | 11.79491 | 1464 ft | 0 kts | 353° |
| 2026-05-04 17:57 | 48.36074 | 11.79484 | 1465 ft | 11 kts | 353° |
| 2026-05-04 17:57 | 48.36145 | 11.79472 | 1468 ft | 9 kts | 354° |
| 2026-05-04 17:58 | 48.36200 | 11.79493 | 1466 ft | 8 kts | 41° |
| 2026-05-04 17:58 | 48.36220 | 11.79569 | 1466 ft | 11 kts | 80° |
| 2026-05-04 17:58 | 48.36236 | 11.79756 | 1460 ft | 26 kts | 83° |
| 2026-05-04 17:58 | 48.36259 | 11.80051 | 1468 ft | 29 kts | 83° |
| 2026-05-04 17:59 | 48.36282 | 11.80350 | 1459 ft | 28 kts | 83° |
| 2026-05-04 17:59 | 48.36303 | 11.80633 | 1467 ft | 27 kts | 83° |
| 2026-05-04 17:59 | 48.36349 | 11.81222 | 1465 ft | 28 kts | 83° |
| 2026-05-04 18:00 | 48.36369 | 11.81485 | 1462 ft | 23 kts | 83° |
| 2026-05-04 18:00 | 48.36387 | 11.81727 | 1466 ft | 21 kts | 83° |
| 2026-05-04 18:00 | 48.36393 | 11.81935 | 1462 ft | 16 kts | 99° |
| 2026-05-04 18:00 | 48.36431 | 11.82012 | 1466 ft | 9 kts | 355° |
| 2026-05-04 18:01 | 48.36463 | 11.82007 | 1466 ft | 0 kts | 354° |
| 2026-05-04 18:03 | 48.36474 | 11.82005 | 1465 ft | 7 kts | 354° |
| 2026-05-04 18:03 | 48.36543 | 11.81994 | 1460 ft | 10 kts | 354° |
| 2026-05-04 18:03 | 48.36639 | 11.81992 | 1465 ft | 15 kts | 1° |
| 2026-05-04 18:04 | 48.36675 | 11.81938 | 1463 ft | 5 kts | 278° |
| 2026-05-04 18:04 | 48.36674 | 11.81917 | 1466 ft | 0 kts | 263° |
| 2026-05-04 18:05 | 48.36663 | 11.81779 | 1463 ft | 47 kts | 263° |
| 2026-05-04 18:05 | 48.36596 | 11.80900 | 1461 ft | 118 kts | 263° |
| 2026-05-04 18:06 | 48.36348 | 11.77669 | 2202 ft | 166 kts | 264° |
| 2026-05-04 18:06 | 48.36227 | 11.75943 | 2946 ft | 168 kts | 264° |
| 2026-05-04 18:06 | 48.36091 | 11.74087 | 3371 ft | 189 kts | 263° |
| 2026-05-04 18:07 | 48.35930 | 11.71991 | 3715 ft | 215 kts | 263° |
| 2026-05-04 18:07 | 48.35750 | 11.69665 | 4313 ft | 230 kts | 266° |
| 2026-05-04 18:07 | 48.35984 | 11.67306 | 5080 ft | 240 kts | 293° |
| 2026-05-04 18:07 | 48.36863 | 11.64977 | 5579 ft | 264 kts | 301° |
| 2026-05-04 18:08 | 48.37853 | 11.62591 | 6411 ft | 272 kts | 302° |
| 2026-05-04 18:08 | 48.38866 | 11.60161 | 7346 ft | 277 kts | 302° |
| 2026-05-04 18:08 | 48.39892 | 11.57684 | 8280 ft | 281 kts | 301° |
| 2026-05-04 18:08 | 48.40911 | 11.55200 | 9171 ft | 285 kts | 301° |
| 2026-05-04 18:09 | 48.43004 | 11.50051 | 10920 ft | 292 kts | 301° |
| 2026-05-04 18:09 | 48.45397 | 11.45030 | 12582 ft | 301 kts | 318° |
| 2026-05-04 18:10 | 48.47160 | 11.43213 | 13266 ft | 311 kts | 333° |
| 2026-05-04 18:10 | 48.49289 | 11.42165 | 13525 ft | 334 kts | 350° |
| 2026-05-04 18:10 | 48.51616 | 11.41577 | 14101 ft | 343 kts | 350° |
| 2026-05-04 18:10 | 48.53979 | 11.40956 | 14804 ft | 347 kts | 349° |
| 2026-05-04 18:11 | 48.56377 | 11.40304 | 15510 ft | 351 kts | 349° |
| 2026-05-04 18:11 | 48.58786 | 11.39635 | 16206 ft | 355 kts | 349° |
| 2026-05-04 18:11 | 48.61227 | 11.38954 | 16892 ft | 358 kts | 349° |
| 2026-05-04 18:11 | 48.63697 | 11.38261 | 17556 ft | 362 kts | 349° |
| 2026-05-04 18:12 | 48.66176 | 11.37566 | 18212 ft | 366 kts | 349° |
| 2026-05-04 18:12 | 48.68690 | 11.36776 | 18781 ft | 370 kts | 344° |
| 2026-05-04 18:12 | 48.71087 | 11.35375 | 18961 ft | 370 kts | 332° |
| 2026-05-04 18:12 | 48.73272 | 11.33321 | 19006 ft | 370 kts | 325° |
| 2026-05-04 18:13 | 48.75398 | 11.31139 | 19009 ft | 369 kts | 326° |
| 2026-05-04 18:13 | 48.77530 | 11.28965 | 19008 ft | 369 kts | 326° |
| 2026-05-04 18:13 | 48.81796 | 11.24633 | 19009 ft | 369 kts | 326° |
| 2026-05-04 18:14 | 48.83964 | 11.22536 | 19008 ft | 370 kts | 331° |
| 2026-05-04 18:14 | 48.86328 | 11.20987 | 19008 ft | 370 kts | 341° |
| 2026-05-04 18:14 | 48.88770 | 11.19773 | 19010 ft | 370 kts | 341° |
| 2026-05-04 18:15 | 48.93657 | 11.17298 | 19122 ft | 374 kts | 341° |
| 2026-05-04 18:15 | 48.98628 | 11.14756 | 20406 ft | 379 kts | 341° |
| 2026-05-04 18:15 | 49.01134 | 11.13477 | 20993 ft | 382 kts | 341° |
| 2026-05-04 18:16 | 49.03663 | 11.12189 | 21557 ft | 385 kts | 341° |
| 2026-05-04 18:16 | 49.06218 | 11.10884 | 22099 ft | 389 kts | 341° |
| 2026-05-04 18:16 | 49.08789 | 11.09567 | 22623 ft | 392 kts | 341° |
| 2026-05-04 18:17 | 49.14004 | 11.06905 | 23646 ft | 398 kts | 341° |
| 2026-05-04 18:17 | 49.16635 | 11.05567 | 24144 ft | 400 kts | 341° |
| 2026-05-04 18:17 | 49.21958 | 11.02847 | 25085 ft | 406 kts | 341° |
| 2026-05-04 18:18 | 49.24650 | 11.01463 | 25528 ft | 409 kts | 341° |
| 2026-05-04 18:18 | 49.27354 | 11.00071 | 25972 ft | 412 kts | 341° |
| 2026-05-04 18:18 | 49.30157 | 10.98623 | 26408 ft | 415 kts | 341° |
| 2026-05-04 18:18 | 49.32928 | 10.97184 | 26834 ft | 417 kts | 341° |
| 2026-05-04 18:19 | 49.38211 | 10.93456 | 27617 ft | 422 kts | 325° |
| 2026-05-04 18:19 | 49.40465 | 10.90644 | 27990 ft | 424 kts | 315° |
| 2026-05-04 18:19 | 49.42448 | 10.87201 | 28382 ft | 426 kts | 309° |
| 2026-05-04 18:20 | 49.44322 | 10.83650 | 28754 ft | 429 kts | 309° |
| 2026-05-04 18:20 | 49.46231 | 10.80029 | 29121 ft | 431 kts | 309° |
| 2026-05-04 18:20 | 49.48077 | 10.76517 | 29469 ft | 434 kts | 309° |
| 2026-05-04 18:20 | 49.49975 | 10.72903 | 29820 ft | 436 kts | 309° |
| 2026-05-04 18:21 | 49.51892 | 10.69256 | 30165 ft | 439 kts | 309° |
| 2026-05-04 18:21 | 49.53840 | 10.65549 | 30502 ft | 441 kts | 309° |
| 2026-05-04 18:21 | 49.55708 | 10.61990 | 30813 ft | 443 kts | 309° |
| 2026-05-04 18:21 | 49.57648 | 10.58294 | 31123 ft | 445 kts | 309° |
| 2026-05-04 18:22 | 49.59621 | 10.54524 | 31439 ft | 447 kts | 309° |
| 2026-05-04 18:22 | 49.61577 | 10.50781 | 31750 ft | 448 kts | 308° |
| 2026-05-04 18:22 | 49.63503 | 10.47079 | 31968 ft | 448 kts | 308° |
| 2026-05-04 18:22 | 49.65455 | 10.43316 | 32010 ft | 435 kts | 308° |
| 2026-05-04 18:23 | 49.67236 | 10.39658 | 32008 ft | 419 kts | 305° |
| 2026-05-04 18:23 | 49.68887 | 10.35998 | 32009 ft | 413 kts | 304° |
| 2026-05-04 18:23 | 49.72039 | 10.28617 | 32009 ft | 410 kts | 303° |
| 2026-05-04 18:24 | 49.75191 | 10.21264 | 32009 ft | 410 kts | 303° |
| 2026-05-04 18:24 | 49.78431 | 10.13866 | 32009 ft | 409 kts | 304° |
| 2026-05-04 18:25 | 49.81588 | 10.06688 | 32008 ft | 409 kts | 304° |
| 2026-05-04 18:25 | 49.84766 | 9.99426 | 32006 ft | 409 kts | 304° |
| 2026-05-04 18:26 | 49.87976 | 9.92066 | 32004 ft | 409 kts | 304° |
| 2026-05-04 18:26 | 49.91130 | 9.84798 | 32001 ft | 409 kts | 303° |
| 2026-05-04 18:27 | 49.94302 | 9.77455 | 32002 ft | 409 kts | 303° |
| 2026-05-04 18:27 | 49.97477 | 9.70120 | 32001 ft | 409 kts | 303° |
| 2026-05-04 18:28 | 50.00641 | 9.62779 | 31999 ft | 409 kts | 303° |
| 2026-05-04 18:28 | 50.03791 | 9.55428 | 31996 ft | 409 kts | 303° |
| 2026-05-04 18:29 | 50.07148 | 9.48314 | 31988 ft | 409 kts | 314° |
| 2026-05-04 18:29 | 50.11464 | 9.42628 | 31991 ft | 409 kts | 321° |
| 2026-05-04 18:30 | 50.18102 | 9.34254 | 31997 ft | 410 kts | 321° |
| 2026-05-04 18:31 | 50.22503 | 9.28663 | 32001 ft | 410 kts | 320° |
| 2026-05-04 18:31 | 50.26924 | 9.23042 | 32002 ft | 409 kts | 321° |
| 2026-05-04 18:32 | 50.31336 | 9.17412 | 32000 ft | 409 kts | 320° |
| 2026-05-04 18:32 | 50.35744 | 9.11776 | 31999 ft | 409 kts | 320° |
| 2026-05-04 18:33 | 50.40153 | 9.06139 | 32000 ft | 409 kts | 320° |
| 2026-05-04 18:33 | 50.44553 | 9.00497 | 31905 ft | 409 kts | 320° |
| 2026-05-04 18:33 | 50.46770 | 8.97649 | 31527 ft | 404 kts | 320° |
| 2026-05-04 18:34 | 50.48931 | 8.94865 | 31071 ft | 400 kts | 320° |
| 2026-05-04 18:34 | 50.51068 | 8.92104 | 30593 ft | 397 kts | 320° |
| 2026-05-04 18:34 | 50.53195 | 8.89357 | 30128 ft | 394 kts | 321° |
| 2026-05-04 18:34 | 50.54607 | 8.87585 | 29808 ft | 392 kts | 321° |
| 2026-05-04 18:35 | 50.56759 | 8.84978 | 29339 ft | 389 kts | 322° |
| 2026-05-04 18:35 | 50.58908 | 8.82438 | 29033 ft | 386 kts | 323° |
| 2026-05-04 18:35 | 50.61063 | 8.79911 | 28999 ft | 386 kts | 323° |
| 2026-05-04 18:36 | 50.65370 | 8.74803 | 29010 ft | 388 kts | 322° |
| 2026-05-04 18:36 | 50.69656 | 8.69638 | 29010 ft | 387 kts | 322° |
| 2026-05-04 18:37 | 50.73927 | 8.64460 | 29008 ft | 388 kts | 322° |
| 2026-05-04 18:37 | 50.78211 | 8.59266 | 29010 ft | 388 kts | 322° |
| 2026-05-04 18:38 | 50.82497 | 8.54064 | 29008 ft | 388 kts | 322° |
| 2026-05-04 18:38 | 50.86777 | 8.48856 | 29008 ft | 388 kts | 322° |
| 2026-05-04 18:39 | 50.91088 | 8.43598 | 29010 ft | 388 kts | 322° |
| 2026-05-04 18:39 | 50.95374 | 8.38346 | 28305 ft | 392 kts | 322° |
| 2026-05-04 18:39 | 50.97542 | 8.35680 | 27552 ft | 396 kts | 322° |
| 2026-05-04 18:40 | 50.99730 | 8.32994 | 26802 ft | 399 kts | 322° |
| 2026-05-04 18:40 | 51.01943 | 8.30410 | 26048 ft | 402 kts | 328° |
| 2026-05-04 18:40 | 51.04380 | 8.28224 | 25336 ft | 403 kts | 330° |
| 2026-05-04 18:40 | 51.06797 | 8.26080 | 25075 ft | 392 kts | 330° |
| 2026-05-04 18:41 | 51.09131 | 8.23996 | 24983 ft | 376 kts | 330° |
| 2026-05-04 18:41 | 51.11382 | 8.21990 | 25017 ft | 369 kts | 330° |
| 2026-05-04 18:41 | 51.13614 | 8.20003 | 25007 ft | 366 kts | 330° |
| 2026-05-04 18:41 | 51.15838 | 8.18025 | 25003 ft | 366 kts | 330° |
| 2026-05-04 18:42 | 51.18060 | 8.16043 | 25005 ft | 365 kts | 330° |
| 2026-05-04 18:42 | 51.20276 | 8.14063 | 25003 ft | 365 kts | 330° |
| 2026-05-04 18:42 | 51.22519 | 8.12054 | 25001 ft | 365 kts | 330° |
| 2026-05-04 18:42 | 51.24737 | 8.10066 | 25000 ft | 365 kts | 330° |
| 2026-05-04 18:43 | 51.26921 | 8.08107 | 25015 ft | 365 kts | 330° |
| 2026-05-04 18:43 | 51.29132 | 8.06118 | 25016 ft | 365 kts | 330° |
| 2026-05-04 18:43 | 51.31344 | 8.04124 | 25016 ft | 365 kts | 330° |
| 2026-05-04 18:43 | 51.33539 | 8.02144 | 24610 ft | 359 kts | 330° |
| 2026-05-04 18:44 | 51.35726 | 8.00172 | 23815 ft | 355 kts | 330° |
| 2026-05-04 18:44 | 51.37150 | 7.98890 | 23306 ft | 352 kts | 330° |
| 2026-05-04 18:44 | 51.39960 | 7.96355 | 22327 ft | 347 kts | 330° |
| 2026-05-04 18:44 | 51.42034 | 7.94421 | 21587 ft | 343 kts | 324° |
| 2026-05-04 18:45 | 51.43769 | 7.91866 | 20878 ft | 337 kts | 309° |
| 2026-05-04 18:45 | 51.45076 | 7.88781 | 20144 ft | 333 kts | 302° |
| 2026-05-04 18:45 | 51.46304 | 7.85643 | 19407 ft | 330 kts | 296° |
| 2026-05-04 18:45 | 51.46921 | 7.82162 | 18751 ft | 324 kts | 271° |
| 2026-05-04 18:46 | 51.46595 | 7.78634 | 18053 ft | 320 kts | 255° |
| 2026-05-04 18:46 | 51.45991 | 7.75197 | 17340 ft | 319 kts | 253° |
| 2026-05-04 18:46 | 51.45347 | 7.71808 | 16681 ft | 316 kts | 253° |
| 2026-05-04 18:46 | 51.44699 | 7.68451 | 16036 ft | 314 kts | 253° |
| 2026-05-04 18:47 | 51.44065 | 7.65119 | 15394 ft | 310 kts | 253° |
| 2026-05-04 18:47 | 51.43451 | 7.61820 | 14766 ft | 308 kts | 253° |
| 2026-05-04 18:47 | 51.42852 | 7.58553 | 14154 ft | 305 kts | 254° |
| 2026-05-04 18:47 | 51.42260 | 7.55305 | 13532 ft | 301 kts | 252° |
| 2026-05-04 18:48 | 51.41394 | 7.52280 | 12975 ft | 296 kts | 237° |
| 2026-05-04 18:48 | 51.40282 | 7.49640 | 12845 ft | 276 kts | 236° |
| 2026-05-04 18:48 | 51.39243 | 7.47143 | 12549 ft | 265 kts | 237° |
| 2026-05-04 18:48 | 51.38248 | 7.44729 | 12109 ft | 261 kts | 237° |
| 2026-05-04 18:49 | 51.37236 | 7.42276 | 11646 ft | 261 kts | 237° |
| 2026-05-04 18:49 | 51.36252 | 7.39898 | 11385 ft | 259 kts | 237° |
| 2026-05-04 18:49 | 51.35260 | 7.37498 | 11103 ft | 258 kts | 237° |
| 2026-05-04 18:49 | 51.34273 | 7.35117 | 10814 ft | 257 kts | 237° |
| 2026-05-04 18:50 | 51.33286 | 7.32746 | 10525 ft | 255 kts | 236° |
| 2026-05-04 18:50 | 51.32301 | 7.30391 | 10221 ft | 254 kts | 236° |
| 2026-05-04 18:50 | 51.31319 | 7.28047 | 9915 ft | 253 kts | 236° |
| 2026-05-04 18:50 | 51.30335 | 7.25699 | 9601 ft | 252 kts | 236° |
| 2026-05-04 18:51 | 51.29382 | 7.23424 | 9302 ft | 251 kts | 236° |
| 2026-05-04 18:51 | 51.28417 | 7.21119 | 8988 ft | 249 kts | 237° |
| 2026-05-04 18:51 | 51.27570 | 7.18710 | 8663 ft | 248 kts | 243° |
| 2026-05-04 18:51 | 51.26787 | 7.16260 | 8338 ft | 247 kts | 243° |
| 2026-05-04 18:52 | 51.26016 | 7.13818 | 8012 ft | 246 kts | 243° |
| 2026-05-04 18:52 | 51.25251 | 7.11392 | 7667 ft | 244 kts | 243° |
| 2026-05-04 18:52 | 51.24488 | 7.08973 | 7334 ft | 243 kts | 244° |
| 2026-05-04 18:52 | 51.24042 | 7.06408 | 6991 ft | 240 kts | 271° |
| 2026-05-04 18:53 | 51.24478 | 7.03884 | 6664 ft | 239 kts | 303° |
| 2026-05-04 18:53 | 51.25683 | 7.02112 | 6311 ft | 238 kts | 335° |
| 2026-05-04 18:53 | 51.27280 | 7.01656 | 6060 ft | 235 kts | 8° |
| 2026-05-04 18:53 | 51.28782 | 7.02683 | 6041 ft | 239 kts | 40° |
| 2026-05-04 18:54 | 51.29901 | 7.04657 | 6043 ft | 242 kts | 52° |
| 2026-05-04 18:54 | 51.30922 | 7.06808 | 6042 ft | 243 kts | 53° |
| 2026-05-04 18:54 | 51.31927 | 7.08977 | 6043 ft | 243 kts | 53° |
| 2026-05-04 18:54 | 51.32926 | 7.11145 | 6043 ft | 243 kts | 53° |
| 2026-05-04 18:55 | 51.33927 | 7.13324 | 6043 ft | 243 kts | 53° |
| 2026-05-04 18:55 | 51.35924 | 7.17675 | 6043 ft | 243 kts | 53° |
| 2026-05-04 18:55 | 51.36919 | 7.19849 | 6043 ft | 243 kts | 53° |
| 2026-05-04 18:56 | 51.37904 | 7.21999 | 6043 ft | 243 kts | 53° |
| 2026-05-04 18:56 | 51.39119 | 7.23836 | 6041 ft | 241 kts | 27° |
| 2026-05-04 18:56 | 51.40695 | 7.24506 | 5804 ft | 237 kts | 357° |
| 2026-05-04 18:56 | 51.42263 | 7.23760 | 5444 ft | 235 kts | 326° |
| 2026-05-04 18:57 | 51.43324 | 7.21832 | 5094 ft | 233 kts | 293° |
| 2026-05-04 18:57 | 51.43592 | 7.19315 | 4738 ft | 232 kts | 268° |
| 2026-05-04 18:57 | 51.43472 | 7.16735 | 4364 ft | 232 kts | 264° |
| 2026-05-04 18:57 | 51.43302 | 7.14167 | 4040 ft | 231 kts | 263° |
| 2026-05-04 18:58 | 51.43124 | 7.11613 | 3713 ft | 230 kts | 263° |
| 2026-05-04 18:58 | 51.42945 | 7.09080 | 3389 ft | 229 kts | 263° |
| 2026-05-04 18:58 | 51.42766 | 7.06572 | 3177 ft | 223 kts | 262° |
| 2026-05-04 18:58 | 51.42287 | 7.04286 | 3085 ft | 213 kts | 237° |
| 2026-05-04 18:59 | 51.41440 | 7.02461 | 3050 ft | 194 kts | 233° |
| 2026-05-04 18:59 | 51.40655 | 7.00796 | 3038 ft | 183 kts | 233° |
| 2026-05-04 18:59 | 51.39898 | 6.99191 | 3038 ft | 179 kts | 233° |
| 2026-05-04 18:59 | 51.39163 | 6.97632 | 3047 ft | 177 kts | 233° |
| 2026-05-04 19:00 | 51.38414 | 6.96046 | 2929 ft | 176 kts | 233° |
| 2026-05-04 19:00 | 51.37685 | 6.94504 | 2714 ft | 175 kts | 233° |
| 2026-05-04 19:00 | 51.36951 | 6.92952 | 2484 ft | 175 kts | 233° |
| 2026-05-04 19:00 | 51.36220 | 6.91407 | 2254 ft | 174 kts | 233° |
| 2026-05-04 19:01 | 51.35493 | 6.89871 | 2036 ft | 173 kts | 233° |
| 2026-05-04 19:01 | 51.34766 | 6.88336 | 1797 ft | 173 kts | 233° |
| 2026-05-04 19:01 | 51.34050 | 6.86827 | 1565 ft | 163 kts | 233° |
| 2026-05-04 19:01 | 51.33404 | 6.85466 | 1358 ft | 146 kts | 233° |
| 2026-05-04 19:02 | 51.32801 | 6.84195 | 1168 ft | 138 kts | 233° |
| 2026-05-04 19:02 | 51.32234 | 6.83001 | 997 ft | 136 kts | 233° |
| 2026-05-04 19:02 | 51.31668 | 6.81808 | 820 ft | 134 kts | 233° |
| 2026-05-04 19:02 | 51.31120 | 6.80656 | 650 ft | 134 kts | 233° |
| 2026-05-04 19:03 | 51.30568 | 6.79505 | 464 ft | 134 kts | 234° |
| 2026-05-04 19:03 | 51.29991 | 6.78278 | 242 ft | 133 kts | 233° |
| 2026-05-04 19:03 | 51.29441 | 6.77128 | 141 ft | 129 kts | 231° |
| 2026-05-04 19:03 | 51.28993 | 6.76181 | 128 ft | 70 kts | 233° |
| 2026-05-04 19:04 | 51.28817 | 6.75831 | 123 ft | 32 kts | 223° |
| 2026-05-04 19:04 | 51.28650 | 6.75685 | 123 ft | 23 kts | 195° |
| 2026-05-04 19:04 | 51.28542 | 6.75703 | 122 ft | 15 kts | 161° |
| 2026-05-04 19:04 | 51.28487 | 6.75750 | 122 ft | 3 kts | 147° |
| 2026-05-04 19:05 | 51.28485 | 6.75751 | 121 ft | 0 kts | 147° |
| 2026-05-04 19:07 | 51.28484 | 6.75752 | 121 ft | 2 kts | 148° |
| 2026-05-04 19:07 | 51.28458 | 6.75783 | 121 ft | 5 kts | 143° |
| 2026-05-04 19:07 | 51.28435 | 6.75811 | 119 ft | 0 kts | 142° |
| 2026-05-04 19:09 | 51.28433 | 6.75813 | 123 ft | 1 kts | 142° |
| 2026-05-04 19:09 | 51.28427 | 6.75820 | 123 ft | 1 kts | 142° |
| 2026-05-04 19:10 | 51.28416 | 6.75834 | 120 ft | 4 kts | 142° |
| 2026-05-04 19:10 | 51.28356 | 6.75909 | 120 ft | 15 kts | 142° |
| 2026-05-04 19:10 | 51.28277 | 6.75990 | 123 ft | 11 kts | 174° |
| 2026-05-04 19:10 | 51.28211 | 6.75967 | 127 ft | 8 kts | 205° |
| 2026-05-04 19:11 | 51.28166 | 6.75932 | 127 ft | 6 kts | 207° |
| 2026-05-04 19:11 | 51.28128 | 6.75901 | 125 ft | 8 kts | 206° |
| 2026-05-04 19:11 | 51.28051 | 6.75845 | 122 ft | 15 kts | 203° |
| 2026-05-04 19:11 | 51.27988 | 6.75823 | 126 ft | 7 kts | 182° |
| 2026-05-04 19:12 | 51.27941 | 6.75819 | 125 ft | 8 kts | 183° |
| 2026-05-04 19:12 | 51.27824 | 6.75815 | 124 ft | 9 kts | 181° |
| 2026-05-04 19:12 | 51.27760 | 6.75812 | 126 ft | 9 kts | 181° |
| 2026-05-04 19:13 | 51.27700 | 6.75811 | 128 ft | 8 kts | 182° |
| 2026-05-04 19:13 | 51.27669 | 6.75825 | 124 ft | 2 kts | 97° |
| 2026-05-04 19:13 | 51.27669 | 6.75852 | 127 ft | 2 kts | 91° |
| 2026-05-04 19:13 | 51.27669 | 6.75883 | 129 ft | 4 kts | 91° |
| 2026-05-04 19:14 | 51.27668 | 6.75909 | 129 ft | 0 kts | 92° |